Terminal Aerodrome Forecast
Issued by NWS

Current Version | Previous Version | Graphics & Text | Print | Product List | Glossary On
Versions: 1 2 3 4 5 6 7 8 9 10 11 12 13 14 15 16 17 18
000
FTUS41 KPBZ 032342
TAFHLG
TAF
KHLG 032342Z 0400/0424 07005KT 4SM -SHRA BR OVC035
      TEMPO 0400/0404 1 1/2SM RA BKN025
     FM040800 VRB05KT 2SM -SHRA BR OVC007
     FM041300 32008KT 5SM BR SCT007 BKN020
     FM041700 33008KT P6SM SCT025=

USA.gov is the U.S. government's official web portal to all federal, state and local government web resources and services.